Time;durP1;ratioP1;P1;durP2;ratioP2;P2;SDS_P1;SDS_P2;PMS_P1;PMS_P2;Temp;Humidity;BMP_temperature;BMP_pressure;BME280_temperature;BME280_humidity;BME280_pressure;Samples;Min_cycle;Max_cycle;Signal;HPM_P1;HPM_P2
2023/11/09 00:00:55;;;;;;;5.20;2.80;;;;;;;13.20;100.00;99315.43;105720;1253;73891;-61
2023/11/09 00:03:23;;;;;;;5.40;2.90;;;;;;;13.21;100.00;99309.54;105710;1254;67011;-61
2023/11/09 00:05:51;;;;;;;5.40;2.20;;;;;;;13.21;100.00;99301.52;105383;1254;72768;-61
2023/11/09 00:08:19;;;;;;;7.20;2.20;;;;;;;13.22;100.00;99291.62;105774;1255;60938;-61
2023/11/09 00:10:46;;;;;;;5.20;2.40;;;;;;;13.23;100.00;99289.60;105542;1254;60532;-61
2023/11/09 00:13:14;;;;;;;4.70;2.00;;;;;;;13.24;100.00;99286.10;105860;1253;72652;-62
2023/11/09 00:15:42;;;;;;;5.30;2.20;;;;;;;13.25;100.00;99279.10;105481;1253;67729;-61
2023/11/09 00:18:10;;;;;;;5.10;2.20;;;;;;;13.26;100.00;99283.33;105593;1252;72716;-61
2023/11/09 00:20:37;;;;;;;4.00;1.40;;;;;;;13.27;100.00;99286.90;105574;1258;60480;-61
2023/11/09 00:23:05;;;;;;;4.70;2.00;;;;;;;13.28;100.00;99283.26;105423;1253;60524;-61
2023/11/09 00:25:33;;;;;;;4.60;1.80;;;;;;;13.28;100.00;99287.56;105315;1257;74231;-61
2023/11/09 00:28:00;;;;;;;3.30;1.60;;;;;;;13.29;100.00;99283.80;105633;1254;66958;-61
2023/11/09 00:30:28;;;;;;;5.40;2.00;;;;;;;13.28;100.00;99275.00;105566;1254;72681;-60
2023/11/09 00:32:56;;;;;;;4.10;1.50;;;;;;;13.29;100.00;99272.15;105606;1257;62128;-61
2023/11/09 00:35:24;;;;;;;4.00;1.50;;;;;;;13.29;100.00;99275.74;105756;1254;60579;-61
2023/11/09 00:37:52;;;;;;;3.50;1.40;;;;;;;13.28;100.00;99270.80;105731;1253;73866;-61
2023/11/09 00:40:19;;;;;;;4.50;2.00;;;;;;;13.28;100.00;99268.04;105593;1254;66950;-61
2023/11/09 00:42:47;;;;;;;3.50;1.70;;;;;;;13.27;100.00;99266.86;105668;1254;71449;-61
2023/11/09 00:45:15;;;;;;;3.50;1.50;;;;;;;13.25;100.00;99263.29;105790;1257;60586;-62
2023/11/09 00:47:45;;;;;;;4.10;2.10;;;;;;;13.23;100.00;99255.86;105348;1257;60351;-61
2023/11/09 00:50:13;;;;;;;3.40;1.60;;;;;;;13.21;100.00;99267.36;105747;1252;72660;-62
2023/11/09 00:52:41;;;;;;;3.70;1.90;;;;;;;13.19;100.00;99272.49;105636;1254;65866;-62
2023/11/09 00:55:09;;;;;;;3.40;1.50;;;;;;;13.17;100.00;99268.52;105567;1257;73166;-63
2023/11/09 00:57:37;;;;;;;3.30;1.60;;;;;;;13.13;100.00;99264.76;105257;1254;62163;-62
2023/11/09 01:00:06;;;;;;;3.20;1.00;;;;;;;13.12;100.00;99263.16;105565;1252;60536;-62
2023/11/09 01:02:38;;;;;;;2.80;1.20;;;;;;;13.11;100.00;99261.21;105659;1253;73891;-61
2023/11/09 01:05:06;;;;;;;1.60;0.90;;;;;;;13.11;100.00;99260.94;105741;1254;65707;-62
2023/11/09 01:07:34;;;;;;;3.30;1.20;;;;;;;13.10;100.00;99269.19;105690;1257;72795;-61
2023/11/09 01:10:04;;;;;;;4.40;1.10;;;;;;;13.10;100.00;99265.30;105577;1254;61717;-62
2023/11/09 01:12:31;;;;;;;2.80;0.90;;;;;;;13.09;100.00;99267.23;105559;1257;60396;-62
2023/11/09 01:15:03;;;;;;;3.50;0.90;;;;;;;13.09;100.00;99256.01;105814;1252;74903;-62
2023/11/09 01:17:31;;;;;;;2.80;0.90;;;;;;;13.08;100.00;99256.11;105582;1253;66932;-61
2023/11/09 01:19:58;;;;;;;2.00;1.00;;;;;;;13.07;100.00;99251.14;105668;1253;72194;-61
2023/11/09 01:22:26;;;;;;;2.20;0.90;;;;;;;13.05;100.00;99244.20;105658;1254;61748;-61
2023/11/09 01:24:54;;;;;;;2.80;1.00;;;;;;;13.04;100.00;99241.77;105370;1254;60471;-62
2023/11/09 01:27:22;;;;;;;3.40;1.30;;;;;;;13.01;100.00;99246.35;105392;1253;73550;-61
2023/11/09 01:29:50;;;;;;;3.20;1.20;;;;;;;12.99;100.00;99244.19;105625;1257;65519;-62
2023/11/09 01:32:17;;;;;;;3.10;1.10;;;;;;;12.96;100.00;99240.21;105609;1253;72681;-61
2023/11/09 01:34:46;;;;;;;2.90;1.30;;;;;;;12.93;100.00;99236.69;105559;1257;61000;-61
2023/11/09 01:37:14;;;;;;;4.00;1.40;;;;;;;12.90;100.00;99235.98;105598;1251;60645;-61
2023/11/09 01:39:42;;;;;;;2.30;1.10;;;;;;;12.88;100.00;99229.10;105626;1253;73854;-60
2023/11/09 01:42:10;;;;;;;2.60;1.20;;;;;;;12.86;100.00;99226.78;105510;1254;66936;-60
2023/11/09 01:44:38;;;;;;;2.60;1.30;;;;;;;12.84;100.00;99225.38;105587;1253;72706;-61
2023/11/09 01:47:05;;;;;;;3.30;1.20;;;;;;;12.82;100.00;99223.63;105764;1253;60449;-61
2023/11/09 01:49:35;;;;;;;3.50;1.30;;;;;;;12.81;100.00;99221.35;105662;1251;60457;-61
2023/11/09 01:52:04;;;;;;;3.90;1.60;;;;;;;12.79;100.00;99204.52;105733;1252;73996;-61
2023/11/09 01:54:33;;;;;;;2.50;1.20;;;;;;;12.76;100.00;99202.19;105696;1252;66768;-60
2023/11/09 01:57:01;;;;;;;2.30;0.90;;;;;;;12.73;100.00;99199.98;105845;1253;72713;-61
2023/11/09 01:59:30;;;;;;;2.90;1.20;;;;;;;12.71;100.00;99206.20;105697;1257;60571;-60
2023/11/09 02:01:58;;;;;;;4.40;1.40;;;;;;;12.69;100.00;99205.60;105630;1252;60988;-60
2023/11/09 02:04:26;;;;;;;3.20;1.30;;;;;;;12.68;100.00;99204.50;105617;1251;72927;-61
2023/11/09 02:06:54;;;;;;;3.20;1.30;;;;;;;12.68;100.00;99202.71;105843;1252;66953;-61
2023/11/09 02:09:22;;;;;;;2.80;1.00;;;;;;;12.68;100.00;99202.61;105426;1258;71442;-61
2023/11/09 02:11:49;;;;;;;3.50;1.30;;;;;;;12.68;100.00;99196.27;105704;1253;61343;-61
2023/11/09 02:14:19;;;;;;;2.10;1.10;;;;;;;12.67;100.00;99193.08;105786;1253;60585;-61
2023/11/09 02:16:47;;;;;;;3.50;1.30;;;;;;;12.68;100.00;99192.36;105724;1253;72642;-61
2023/11/09 02:19:17;;;;;;;2.80;1.20;;;;;;;12.70;100.00;99196.25;105645;1254;69115;-61
2023/11/09 02:21:46;;;;;;;2.40;1.30;;;;;;;12.71;100.00;99191.73;105674;1254;73146;-61
2023/11/09 02:24:14;;;;;;;2.30;1.40;;;;;;;12.71;100.00;99178.90;105687;1253;61701;-61
2023/11/09 02:26:42;;;;;;;3.60;1.40;;;;;;;12.70;100.00;99181.86;105753;1253;60313;-61
2023/11/09 02:29:10;;;;;;;3.00;1.50;;;;;;;12.69;100.00;99190.52;105701;1252;72732;-61
2023/11/09 02:31:37;;;;;;;4.00;1.60;;;;;;;12.68;100.00;99207.65;105476;1254;67038;-61
2023/11/09 02:34:05;;;;;;;3.60;1.60;;;;;;;12.68;100.00;99216.10;105569;1257;72717;-60
2023/11/09 02:36:34;;;;;;;3.50;2.10;;;;;;;12.66;100.00;99219.63;105658;1251;61714;-61
2023/11/09 02:39:02;;;;;;;3.40;2.20;;;;;;;12.66;100.00;99216.54;105805;1253;60457;-61
2023/11/09 02:41:30;;;;;;;5.00;2.80;;;;;;;12.65;100.00;99214.73;105777;1253;73932;-61
2023/11/09 02:43:58;;;;;;;4.30;2.80;;;;;;;12.64;100.00;99210.10;105647;1256;66201;-61
2023/11/09 02:46:25;;;;;;;4.30;3.00;;;;;;;12.65;100.00;99207.45;105776;1253;72821;-61
2023/11/09 02:48:53;;;;;;;4.70;3.00;;;;;;;12.66;100.00;99213.52;105744;1257;60473;-61
2023/11/09 02:51:21;;;;;;;7.70;4.80;;;;;;;12.67;100.00;99228.27;105560;1257;60670;-60
2023/11/09 02:53:49;;;;;;;7.20;5.70;;;;;;;12.65;100.00;99235.69;105422;1252;72669;-61
2023/11/09 02:56:17;;;;;;;7.80;5.80;;;;;;;12.61;100.00;99240.14;105711;1253;66975;-61
2023/11/09 02:58:45;;;;;;;8.40;6.80;;;;;;;12.56;100.00;99247.98;105568;1253;72699;-61
2023/11/09 03:01:13;;;;;;;9.70;7.40;;;;;;;12.52;100.00;99245.63;105695;1253;60547;-61
2023/11/09 03:03:41;;;;;;;11.10;8.60;;;;;;;12.46;100.00;99246.73;105615;1253;60457;-61
2023/11/09 03:06:09;;;;;;;12.50;9.70;;;;;;;12.39;100.00;99252.83;105668;1253;72595;-62
2023/11/09 03:08:37;;;;;;;12.80;9.70;;;;;;;12.32;100.00;99249.04;105561;1260;65835;-60
2023/11/09 03:11:05;;;;;;;12.30;9.40;;;;;;;12.25;100.00;99244.65;105577;1257;71479;-60
2023/11/09 03:21:17;;;;;;;14.20;10.90;;;;;;;12.02;100.00;99264.92;102298;1293;600332;-60
2023/11/09 03:23:47;;;;;;;9.60;7.80;;;;;;;11.95;100.00;99266.55;104847;1266;64358;-60
2023/11/09 03:26:15;;;;;;;11.70;9.20;;;;;;;11.90;100.00;99268.94;104748;1270;59352;-60
2023/11/09 03:28:43;;;;;;;11.00;9.20;;;;;;;11.86;100.00;99269.16;105077;1264;70871;-60
2023/11/09 03:31:11;;;;;;;11.50;8.50;;;;;;;11.83;100.00;99272.80;104574;1266;68038;-60
2023/11/09 03:33:39;;;;;;;16.80;9.00;;;;;;;11.78;100.00;99276.77;104923;1266;74187;-60
2023/11/09 03:36:07;;;;;;;11.80;8.80;;;;;;;11.74;100.00;99274.23;104741;1264;60875;-60
2023/11/09 03:38:35;;;;;;;9.70;7.50;;;;;;;11.69;100.00;99278.32;104712;1263;60827;-60
2023/11/09 03:41:03;;;;;;;10.70;7.60;;;;;;;11.65;100.00;99285.15;104675;1266;70982;-60
2023/11/09 03:43:31;;;;;;;9.80;7.60;;;;;;;11.56;100.00;99286.46;105607;1251;65689;-61
2023/11/09 03:45:59;;;;;;;12.30;8.10;;;;;;;11.38;100.00;99292.86;105779;1253;71726;-61
2023/11/09 03:48:27;;;;;;;9.40;7.20;;;;;;;11.21;100.00;99292.10;105501;1254;62245;-61
2023/11/09 03:50:55;;;;;;;9.20;6.60;;;;;;;11.05;100.00;99286.65;105823;1256;60079;-61
2023/11/09 03:53:23;;;;;;;7.30;5.50;;;;;;;10.90;100.00;99292.36;105774;1256;73053;-61
2023/11/09 03:55:51;;;;;;;13.70;4.60;;;;;;;10.76;100.00;99294.66;105681;1251;67221;-61
2023/11/09 03:58:19;;;;;;;5.20;3.70;;;;;;;10.63;100.00;99295.36;105714;1251;71449;-60
2023/11/09 04:00:46;;;;;;;6.50;3.30;;;;;;;10.51;100.00;99299.09;105692;1251;61703;-61
2023/11/09 04:03:14;;;;;;;4.70;3.00;;;;;;;10.40;100.00;99294.72;105709;1251;59710;-61
2023/11/09 04:05:42;;;;;;;4.10;2.60;;;;;;;10.33;100.00;99298.98;105445;1252;71855;-61
2023/11/09 04:08:10;;;;;;;3.80;2.80;;;;;;;10.23;100.00;99305.86;105691;1256;66922;-60
2023/11/09 04:10:37;;;;;;;4.20;2.20;;;;;;;10.14;100.00;99304.40;105707;1254;71465;-60
2023/11/09 04:20:46;;;;;;;3.60;2.00;;;;;;;9.91;100.00;99309.89;103213;1283;600890;-60
2023/11/09 04:23:14;;;;;;;3.10;2.10;;;;;;;9.86;100.00;99295.16;105282;1260;60753;-60
2023/11/09 04:25:42;;;;;;;3.10;1.90;;;;;;;9.81;100.00;99293.40;105110;1264;59378;-60
2023/11/09 04:28:10;;;;;;;4.40;2.20;;;;;;;9.74;100.00;99280.79;105221;1260;72194;-60
2023/11/09 04:30:37;;;;;;;2.90;2.00;;;;;;;9.66;100.00;99272.45;105164;1260;65405;-60
2023/11/09 04:40:51;;;;;;;2.60;1.50;;;;;;;9.42;100.00;99270.55;102524;1293;601223;-61
2023/11/09 04:43:19;;;;;;;2.70;1.60;;;;;;;9.38;100.00;99268.41;104906;1269;59673;-61
2023/11/09 04:45:47;;;;;;;2.70;1.70;;;;;;;9.37;100.00;99281.38;104776;1269;59036;-60
2023/11/09 04:48:20;;;;;;;2.50;1.50;;;;;;;9.37;100.00;99291.63;104868;1265;72297;-59
2023/11/09 04:50:52;;;;;;;3.00;1.70;;;;;;;9.36;100.00;99314.44;105103;1269;67057;-61
2023/11/09 04:53:30;;;;;;;2.80;1.90;;;;;;;9.36;100.00;99328.20;104569;1264;186904;-60
2023/11/09 04:56:04;;;;;;;2.50;1.60;;;;;;;9.36;100.00;99318.68;104974;1266;61689;-61
2023/11/09 04:58:47;;;;;;;2.70;1.60;;;;;;;9.36;100.00;99320.40;104704;1264;59437;-61
2023/11/09 05:07:06;;;;;;;3.50;2.00;;;;;;;9.35;100.00;99322.78;104873;1276;72752;-60
2023/11/09 05:09:34;;;;;;;3.90;2.00;;;;;;;9.34;100.00;99312.11;105471;1259;61754;-59
2023/11/09 05:12:03;;;;;;;2.80;1.80;;;;;;;9.35;100.00;99308.91;105418;1257;59601;-61
